Meteo Giornale » Osservazioni meteo Italia » Falconara

ore: 23:50 - Osservazioni Meteo Falconara
Lat. 43° 37' N Lon. 13° 22' E Alt. 12 metri s.l.m.

sereno Europe/Rome

15 °C

Sereno

Temp. 24 Ore

9 °C

21 °C

Sud/Sud-Ovest

7.4 Km/h

Dew point 11 °C

Umidità 76 %

Visibilità  10 Km

Il sole sorge alle ore 06:51

Il sole tramonta alle ore 19:06

Data e Ora Cielo e Fenomeni T °C DP °C Um. % Pres. hPa Vis. km Vento km/h
Ieri h: 23:50 sereno Sereno 15 11 76 1019 10 S/SO 7.4
Ieri h: 22:50 sereno Sereno 16 10 67 1019 10 S 7.4
Ieri h: 21:50 sereno Sereno 17 9 59 1019 10 S 7.4
Ieri h: 20:50 poco_nuvoloso Poco Nuvoloso 17 9 59 1018 10 N 5.5
Ieri h: 19:50 nuvoloso Nuvoloso 18 9 55 1018 10 SE 9.3
Ieri h: 18:50 nuvoloso Nuvoloso 20 9 49 1018 10 N 3.7
Ieri h: 17:50 nuvoloso Nuvoloso 20 10 52 1018 10 N 7.4
Ieri h: 16:50 sereno Sereno 21 9 46 1018 10 NE 13
Ieri h: 15:50 sereno Sereno 21 9 46 1018 10 NE 13
Ieri h: 14:50 sereno Sereno 21 11 52 1018 10 N/NE 16.7
Ieri h: 13:50 sereno Sereno 21 10 49 1019 10 N 11.1
Ieri h: 12:50 sereno Sereno 21 10 49 1019 10 NE 9.3
Ieri h: 11:50 poco_nuvoloso Poco Nuvoloso 21 6 37 1019 10 N 5.5
Ieri h: 10:50 poco_nuvoloso Poco Nuvoloso 19 10 55 1019 10 SO 9.3
Ieri h: 09:50 sereno Sereno 16 10 67 1019 10 SO 7.4
Ieri h: 08:50 sereno Sereno 14 8 67 1018 10 S 7.4
Ieri h: 07:50 sereno Sereno 10 7 81 1018 10 N 5.5
Ieri h: 06:50 sereno Sereno 9 7 87 1018 10 S 7.4
Ieri h: 05:50 sereno Sereno 10 7 81 1018 10 S/SE 7.4
Ieri h: 04:50 sereno Sereno 9 7 87 1018 10 N 3.7
Ieri h: 03:50 sereno Sereno 11 7 76 1018 10 S 9.3
Ieri h: 01:50 sereno Sereno 12 7 71 1019 10 N 5.5